createdAt,value
2022-08-25T00:01:19.549Z,9.20
2022-08-25T00:03:46.062Z,10.75
2022-08-25T00:06:12.574Z,10.40
2022-08-25T00:08:38.983Z,10.40
2022-08-25T00:11:05.289Z,10.25
2022-08-25T00:13:32.668Z,10.30
2022-08-25T00:15:59.136Z,10.23
2022-08-25T00:18:25.693Z,11.05
2022-08-25T00:20:52.272Z,10.82
2022-08-25T00:23:18.590Z,11.73
2022-08-25T00:25:44.897Z,10.25
2022-08-25T00:28:11.539Z,10.82
2022-08-25T00:30:38.267Z,9.65
2022-08-25T00:33:04.585Z,10.20
2022-08-25T00:35:30.910Z,10.73
2022-08-25T00:37:57.243Z,10.00
2022-08-25T00:40:23.628Z,10.27
2022-08-25T00:42:50.089Z,10.38
2022-08-25T00:45:16.774Z,11.00
2022-08-25T00:47:43.060Z,10.43
2022-08-25T00:50:09.451Z,10.02
2022-08-25T00:52:35.958Z,11.05
2022-08-25T00:55:08.055Z,9.82
2022-08-25T00:57:35.197Z,10.40
2022-08-25T01:00:02.448Z,10.18
2022-08-25T01:02:28.935Z,10.00
2022-08-25T01:04:55.254Z,10.35
2022-08-25T01:07:21.665Z,9.48
2022-08-25T01:09:48.046Z,10.20
2022-08-25T01:12:14.464Z,10.63
2022-08-25T01:14:40.790Z,10.63
2022-08-25T01:17:07.186Z,9.60
2022-08-25T01:19:34.001Z,9.60
2022-08-25T01:22:00.952Z,10.40
2022-08-25T01:24:27.794Z,10.02
2022-08-25T01:26:54.216Z,9.73
2022-08-25T01:29:20.844Z,10.15
2022-08-25T01:31:47.185Z,10.65
2022-08-25T01:34:13.477Z,10.77
2022-08-25T01:36:40.141Z,9.85
2022-08-25T01:39:06.563Z,10.40
2022-08-25T01:41:32.865Z,10.18
2022-08-25T01:43:59.143Z,11.13
2022-08-25T01:46:25.515Z,10.13
2022-08-25T01:48:51.840Z,10.35
2022-08-25T01:51:18.446Z,10.00
2022-08-25T01:53:44.802Z,10.02
2022-08-25T01:56:11.129Z,10.48
2022-08-25T01:58:37.502Z,10.45
2022-08-25T02:01:03.831Z,10.85
2022-08-25T02:03:30.161Z,10.30
2022-08-25T02:05:59.013Z,9.95
2022-08-25T02:08:25.401Z,9.70
2022-08-25T02:10:51.784Z,9.80
2022-08-25T02:13:18.210Z,11.65
2022-08-25T02:15:47.686Z,9.88
2022-08-25T02:18:14.013Z,10.65
2022-08-25T02:20:40.453Z,10.23
2022-08-25T02:23:06.846Z,10.27
2022-08-25T02:25:33.181Z,10.73
2022-08-25T02:27:59.556Z,10.98
2022-08-25T02:30:25.914Z,9.90
2022-08-25T02:32:52.291Z,9.75
2022-08-25T02:35:18.773Z,10.15
2022-08-25T02:37:45.209Z,9.57
2022-08-25T02:40:12.046Z,10.15
2022-08-25T02:42:39.197Z,10.23
2022-08-25T02:45:09.069Z,10.52
2022-08-25T02:47:35.346Z,10.70
2022-08-25T02:50:01.911Z,10.35
2022-08-25T02:52:28.429Z,9.85
2022-08-25T02:54:54.781Z,11.00
2022-08-25T02:57:21.092Z,9.45
2022-08-25T02:59:47.366Z,10.68
2022-08-25T03:02:13.609Z,9.52
2022-08-25T03:04:39.960Z,10.30
2022-08-25T03:07:06.585Z,10.25
2022-08-25T03:09:34.234Z,10.95
2022-08-25T03:12:01.328Z,10.40
2022-08-25T03:14:27.928Z,10.18
2022-08-25T03:16:54.477Z,10.55
2022-08-25T03:19:21.310Z,10.00
2022-08-25T03:21:47.789Z,9.77
2022-08-25T03:24:14.190Z,10.00
2022-08-25T03:26:46.538Z,9.65
2022-08-25T03:29:12.877Z,9.80
2022-08-25T03:31:39.248Z,9.50
2022-08-25T03:34:05.644Z,10.13
2022-08-25T03:36:32.062Z,9.40
2022-08-25T03:38:58.573Z,10.18
2022-08-25T03:41:28.148Z,9.30
2022-08-25T03:43:55.685Z,10.10
2022-08-25T03:46:22.273Z,9.70
2022-08-25T03:48:48.986Z,9.45
2022-08-25T03:51:15.325Z,10.55
2022-08-25T03:53:41.837Z,10.30
2022-08-25T03:56:08.106Z,9.80
2022-08-25T03:58:34.551Z,10.05
2022-08-25T04:01:00.873Z,10.38
2022-08-25T04:03:27.238Z,9.82
2022-08-25T04:05:53.670Z,10.40
2022-08-25T04:08:20.189Z,11.10
2022-08-25T04:10:46.486Z,9.63
2022-08-25T04:13:13.022Z,9.52
2022-08-25T04:15:39.378Z,10.45
2022-08-25T04:18:05.972Z,10.48
2022-08-25T04:20:32.465Z,10.05
2022-08-25T04:22:58.866Z,10.30
2022-08-25T04:25:25.174Z,12.75
2022-08-25T04:27:51.520Z,10.57
2022-08-25T04:30:17.858Z,10.20
2022-08-25T04:32:44.188Z,9.95
2022-08-25T04:35:10.484Z,10.38
2022-08-25T04:37:36.786Z,10.57
2022-08-25T04:40:03.402Z,10.38
2022-08-25T04:42:30.100Z,9.32
2022-08-25T04:44:56.485Z,9.70
2022-08-25T04:47:23.092Z,10.00
2022-08-25T04:49:49.523Z,10.18
2022-08-25T04:52:16.030Z,9.63
2022-08-25T04:54:42.544Z,9.50
2022-08-25T04:57:09.023Z,9.35
2022-08-25T04:59:35.751Z,10.15
2022-08-25T05:02:02.626Z,10.57
2022-08-25T05:04:29.314Z,10.35
2022-08-25T05:06:55.614Z,10.73
2022-08-25T05:09:22.142Z,10.15
2022-08-25T05:11:48.440Z,10.13
2022-08-25T05:14:15.143Z,9.98
2022-08-25T05:16:42.087Z,10.07
2022-08-25T05:19:08.491Z,9.95
2022-08-25T05:21:35.036Z,9.93
2022-08-25T05:24:01.343Z,10.90
2022-08-25T05:26:27.701Z,10.45
2022-08-25T05:28:54.075Z,10.55
2022-08-25T05:31:20.435Z,9.57
2022-08-25T05:33:46.959Z,12.57
2022-08-25T05:36:13.266Z,11.02
2022-08-25T05:38:39.577Z,10.85
2022-08-25T05:41:06.205Z,10.48
2022-08-25T05:43:32.531Z,12.52
2022-08-25T05:45:59.045Z,10.40
2022-08-25T05:48:25.954Z,10.30
2022-08-25T05:50:52.510Z,10.63
2022-08-25T05:53:18.822Z,10.63
2022-08-25T05:55:45.122Z,10.13
2022-08-25T05:58:11.511Z,11.13
2022-08-25T06:00:40.703Z,10.80
2022-08-25T06:03:07.699Z,10.90
2022-08-25T06:05:34.100Z,10.75
2022-08-25T06:08:00.470Z,10.77
2022-08-25T06:10:27.968Z,11.32
2022-08-25T06:12:54.312Z,11.40
2022-08-25T06:15:23.333Z,11.32
2022-08-25T06:17:49.806Z,14.45
2022-08-25T06:20:16.414Z,19.83
2022-08-25T06:22:42.745Z,18.52
2022-08-25T06:25:09.234Z,23.33
2022-08-25T06:27:36.072Z,20.92
2022-08-25T06:30:07.809Z,19.83
2022-08-25T06:32:34.778Z,23.70
2022-08-25T06:35:01.186Z,22.63
2022-08-25T06:37:31.526Z,25.98
2022-08-25T06:39:57.844Z,20.85
2022-08-25T06:42:24.189Z,24.83
2022-08-25T06:44:50.702Z,22.60
2022-08-25T06:47:17.369Z,22.75
2022-08-25T06:49:44.045Z,23.40
2022-08-25T06:52:10.541Z,22.88
2022-08-25T06:54:37.333Z,22.02
2022-08-25T06:57:03.649Z,22.00
2022-08-25T06:59:32.197Z,21.92
2022-08-25T07:01:58.840Z,20.08
2022-08-25T07:04:25.588Z,19.95
2022-08-25T07:06:52.496Z,21.05
2022-08-25T07:09:19.495Z,18.65
2022-08-25T07:11:45.845Z,18.75
2022-08-25T07:14:12.129Z,17.67
2022-08-25T07:16:38.742Z,18.67
2022-08-25T07:19:08.336Z,17.83
2022-08-25T07:21:35.496Z,19.70
2022-08-25T07:24:02.320Z,16.58
2022-08-25T07:26:43.938Z,18.48
2022-08-25T07:29:10.485Z,17.27
2022-08-25T07:31:37.566Z,18.30
2022-08-25T07:34:04.123Z,17.85
2022-08-25T07:36:30.579Z,19.02
2022-08-25T07:38:57.024Z,18.92
2022-08-25T07:41:23.428Z,18.23
2022-08-25T07:43:50.055Z,19.80
2022-08-25T07:46:16.614Z,21.13
2022-08-25T07:48:43.260Z,18.35
2022-08-25T07:51:19.542Z,19.70
2022-08-25T07:53:46.050Z,17.85
2022-08-25T07:56:12.827Z,16.48
2022-08-25T07:58:39.148Z,18.90
2022-08-25T08:01:06.603Z,19.52
2022-08-25T08:03:45.177Z,17.70
2022-08-25T08:06:16.494Z,17.65
2022-08-25T08:08:51.082Z,19.17
2022-08-25T08:13:50.860Z,19.23
2022-08-25T08:16:18.519Z,19.58
2022-08-25T08:18:44.947Z,20.08
2022-08-25T08:21:11.273Z,19.25
2022-08-25T08:23:37.889Z,20.20
2022-08-25T08:26:04.298Z,19.10
2022-08-25T08:28:30.914Z,18.90
2022-08-25T08:30:57.345Z,20.25
2022-08-25T08:33:24.229Z,22.77
2022-08-25T08:35:50.722Z,20.92
2022-08-25T08:38:22.102Z,21.30
2022-08-25T08:40:48.642Z,23.15
2022-08-25T08:43:20.990Z,24.10
2022-08-25T08:45:47.534Z,21.98
2022-08-25T08:48:16.155Z,23.92
2022-08-25T08:50:42.682Z,22.90
2022-08-25T08:53:09.839Z,24.05
2022-08-25T08:55:36.600Z,24.30
2022-08-25T09:00:29.744Z,23.23
2022-08-25T09:02:56.305Z,23.70
2022-08-25T09:05:23.121Z,25.10
2022-08-25T09:07:49.409Z,23.05
2022-08-25T09:10:21.944Z,23.88
2022-08-25T09:12:48.501Z,23.00
2022-08-25T09:15:15.036Z,22.15
2022-08-25T09:17:41.549Z,23.52
2022-08-25T09:20:18.737Z,23.00
2022-08-25T09:22:46.810Z,22.35
2022-08-25T09:25:22.067Z,24.58
2022-08-25T09:27:56.096Z,23.00
2022-08-25T09:30:24.887Z,21.58
2022-08-25T09:32:52.383Z,21.92
2022-08-25T09:35:18.985Z,22.30
2022-08-25T09:37:45.261Z,22.70
2022-08-25T09:40:12.270Z,23.13
2022-08-25T09:42:38.650Z,22.98
2022-08-25T09:45:05.103Z,21.60
2022-08-25T09:47:31.513Z,22.33
2022-08-25T09:49:59.173Z,21.85
2022-08-25T09:52:25.498Z,22.05
2022-08-25T09:54:51.933Z,22.25
2022-08-25T09:57:20.914Z,22.75
2022-08-25T09:59:57.694Z,21.73
2022-08-25T10:02:24.141Z,22.40
2022-08-25T10:04:50.495Z,22.58
2022-08-25T10:07:17.156Z,21.13
2022-08-25T10:09:43.508Z,20.70
2022-08-25T10:12:09.883Z,21.48
2022-08-25T10:14:37.361Z,24.10
2022-08-25T10:17:03.777Z,22.70
2022-08-25T10:19:30.576Z,21.65
2022-08-25T10:21:57.220Z,21.50
2022-08-25T10:24:24.137Z,20.80
2022-08-25T10:26:50.468Z,20.52
2022-08-25T10:29:16.972Z,22.05
2022-08-25T10:34:27.855Z,24.30
2022-08-25T10:36:56.030Z,21.45
2022-08-25T10:39:34.354Z,21.92
2022-08-25T10:44:31.520Z,22.65
2022-08-25T10:46:58.026Z,21.52
2022-08-25T10:49:24.516Z,21.35
2022-08-25T10:51:51.057Z,24.40
2022-08-25T10:54:17.966Z,20.95
2022-08-25T10:56:44.583Z,21.08
2022-08-25T10:59:11.035Z,20.80
2022-08-25T11:01:43.654Z,20.73
2022-08-25T11:04:11.063Z,21.00
2022-08-25T11:06:37.668Z,21.05
2022-08-25T11:09:05.293Z,20.95
2022-08-25T11:11:32.255Z,21.45
2022-08-25T11:14:04.597Z,20.48
2022-08-25T11:16:35.900Z,22.67
2022-08-25T11:19:05.515Z,20.95
2022-08-25T11:21:32.717Z,21.23
2022-08-25T11:24:01.381Z,20.73
2022-08-25T11:26:31.957Z,19.75
2022-08-25T11:28:59.204Z,20.20
2022-08-25T11:31:25.588Z,19.20
2022-08-25T11:33:51.904Z,19.60
2022-08-25T11:36:18.232Z,19.90
2022-08-25T11:38:45.185Z,19.73
2022-08-25T11:41:14.666Z,18.37
2022-08-25T11:43:41.002Z,19.10
2022-08-25T11:46:07.338Z,19.98
2022-08-25T11:48:33.707Z,18.42
2022-08-25T11:51:00.268Z,19.40
2022-08-25T11:53:28.966Z,17.80
2022-08-25T11:55:56.680Z,19.25
2022-08-25T11:58:23.174Z,18.42
2022-08-25T12:00:49.492Z,17.83
2022-08-25T12:03:16.140Z,18.30
2022-08-25T12:05:46.081Z,17.40
2022-08-25T12:08:12.515Z,17.58
2022-08-25T12:10:39.677Z,18.20
2022-08-25T12:13:08.113Z,19.30
2022-08-25T12:15:36.999Z,19.45
2022-08-25T12:18:07.346Z,19.33
2022-08-25T12:20:35.460Z,17.90
2022-08-25T12:23:01.775Z,18.17
2022-08-25T12:25:31.369Z,17.77
2022-08-25T12:28:00.422Z,18.83
2022-08-25T12:30:27.550Z,17.88
2022-08-25T12:32:54.132Z,17.65
2022-08-25T12:35:20.860Z,18.30
2022-08-25T12:37:47.220Z,17.42
2022-08-25T12:40:13.984Z,17.67
2022-08-25T12:42:41.105Z,17.77
2022-08-25T12:45:07.400Z,18.90
2022-08-25T12:47:34.518Z,18.20
2022-08-25T12:50:00.833Z,18.35
2022-08-25T12:52:28.143Z,18.25
2022-08-25T12:54:54.646Z,17.67
2022-08-25T12:57:24.993Z,18.98
2022-08-25T12:59:51.627Z,19.17
2022-08-25T13:02:18.183Z,19.80
2022-08-25T13:04:45.226Z,18.35
2022-08-25T13:07:11.577Z,18.70
2022-08-25T13:09:39.804Z,19.63
2022-08-25T13:12:06.309Z,19.30
2022-08-25T13:17:03.891Z,18.90
2022-08-25T13:19:35.081Z,18.35
2022-08-25T13:22:01.855Z,17.98
2022-08-25T13:24:28.440Z,18.05
2022-08-25T13:26:55.045Z,18.98
2022-08-25T13:29:21.893Z,18.40
2022-08-25T13:31:48.484Z,21.13
2022-08-25T13:34:19.387Z,18.20
2022-08-25T13:36:51.933Z,18.50
2022-08-25T13:39:45.724Z,19.02
2022-08-25T13:42:07.037Z,18.00
2022-08-25T13:44:33.702Z,19.48
2022-08-25T13:47:00.170Z,19.63
2022-08-25T13:49:26.461Z,18.40
2022-08-25T13:51:54.269Z,18.55
2022-08-25T13:54:20.609Z,18.05
2022-08-25T13:56:46.954Z,18.67
2022-08-25T13:59:13.246Z,19.38
2022-08-25T14:01:52.224Z,18.25
2022-08-25T14:04:18.691Z,18.30
2022-08-25T14:06:44.961Z,18.38
2022-08-25T14:09:12.406Z,18.35
2022-08-25T14:11:38.760Z,18.77
2022-08-25T14:14:05.661Z,18.10
2022-08-25T14:16:32.089Z,18.38
2022-08-25T14:18:58.757Z,17.58
2022-08-25T14:21:25.774Z,17.58
2022-08-25T14:23:52.122Z,18.70
2022-08-25T14:26:19.041Z,17.67
2022-08-25T14:28:45.432Z,17.95
2022-08-25T14:31:11.831Z,18.27
2022-08-25T14:33:38.490Z,17.58
2022-08-25T14:36:04.878Z,17.42
2022-08-25T14:38:31.825Z,18.13
2022-08-25T14:40:59.207Z,17.80
2022-08-25T14:43:31.824Z,16.42
2022-08-25T14:45:58.773Z,17.60
2022-08-25T14:48:25.275Z,18.08
2022-08-25T14:50:51.553Z,18.67
2022-08-25T14:53:17.830Z,17.10
2022-08-25T14:55:44.300Z,16.88
2022-08-25T14:58:11.330Z,18.52
2022-08-25T15:00:38.422Z,17.45
2022-08-25T15:03:05.009Z,17.40
2022-08-25T15:05:31.501Z,16.85
2022-08-25T15:07:57.889Z,16.80
2022-08-25T15:10:25.199Z,17.33
2022-08-25T15:12:54.724Z,18.05
2022-08-25T15:15:21.593Z,16.17
2022-08-25T15:17:49.365Z,16.83
2022-08-25T15:20:16.711Z,17.20
2022-08-25T15:22:43.208Z,17.05
2022-08-25T15:25:10.402Z,18.02
2022-08-25T15:27:36.784Z,16.77
2022-08-25T15:30:03.246Z,16.73
2022-08-25T15:32:29.730Z,17.45
2022-08-25T15:34:56.204Z,16.60
2022-08-25T15:37:24.146Z,17.10
2022-08-25T15:39:50.512Z,16.48
2022-08-25T15:42:17.419Z,16.50
2022-08-25T15:44:53.550Z,16.73
2022-08-25T15:47:20.426Z,15.77
2022-08-25T15:49:47.056Z,16.40
2022-08-25T15:52:13.417Z,16.85
2022-08-25T15:54:39.738Z,17.38
2022-08-25T15:57:09.082Z,16.30
2022-08-25T16:02:15.159Z,16.65
2022-08-25T16:04:41.824Z,16.58
2022-08-25T16:07:09.022Z,16.25
2022-08-25T16:09:39.638Z,16.70
2022-08-25T16:12:06.011Z,17.02
2022-08-25T16:14:35.098Z,15.93
2022-08-25T16:17:01.478Z,15.13
2022-08-25T16:19:27.748Z,15.95
2022-08-25T16:21:54.067Z,16.08
2022-08-25T16:24:20.413Z,15.35
2022-08-25T16:26:48.507Z,15.85
2022-08-25T16:29:15.272Z,16.90
2022-08-25T16:31:43.083Z,15.15
2022-08-25T16:34:09.626Z,16.10
2022-08-25T16:36:37.634Z,15.45
2022-08-25T16:39:04.006Z,15.98
2022-08-25T16:41:36.397Z,15.40
2022-08-25T16:44:02.742Z,15.52
2022-08-25T16:46:29.586Z,16.08
2022-08-25T16:48:55.998Z,14.75
2022-08-25T16:51:25.587Z,15.98
2022-08-25T16:53:56.130Z,15.55
2022-08-25T16:56:22.567Z,14.38
2022-08-25T16:58:49.009Z,15.05
2022-08-25T17:01:18.689Z,16.10
2022-08-25T17:03:45.006Z,15.00
2022-08-25T17:06:12.608Z,14.93
2022-08-25T17:08:39.608Z,15.30
2022-08-25T17:11:05.948Z,15.48
2022-08-25T17:13:33.265Z,14.80
2022-08-25T17:16:01.672Z,14.82
2022-08-25T17:18:29.406Z,15.27
2022-08-25T17:20:55.725Z,14.65
2022-08-25T17:23:22.106Z,15.15
2022-08-25T17:25:48.701Z,14.60
2022-08-25T17:28:15.828Z,16.15
2022-08-25T17:30:42.922Z,14.85
2022-08-25T17:33:09.196Z,15.07
2022-08-25T17:35:35.525Z,13.75
2022-08-25T17:38:02.123Z,15.18
2022-08-25T17:40:34.049Z,13.85
2022-08-25T17:43:01.421Z,13.88
2022-08-25T17:45:27.734Z,14.40
2022-08-25T17:47:54.748Z,14.52
2022-08-25T17:50:21.115Z,14.63
2022-08-25T17:52:47.497Z,14.45
2022-08-25T17:55:13.997Z,14.57
2022-08-25T17:57:42.002Z,14.88
2022-08-25T18:00:09.520Z,13.57
2022-08-25T18:02:36.994Z,14.32
2022-08-25T18:05:04.570Z,14.13
2022-08-25T18:07:30.991Z,14.18
2022-08-25T18:09:57.449Z,13.95
2022-08-25T18:12:23.825Z,13.15
2022-08-25T18:14:53.914Z,12.88
2022-08-25T18:17:22.967Z,12.63
2022-08-25T18:19:49.508Z,13.48
2022-08-25T18:22:15.864Z,14.25
2022-08-25T18:24:42.176Z,13.65
2022-08-25T18:27:08.515Z,14.00
2022-08-25T18:29:35.322Z,12.85
2022-08-25T18:32:01.705Z,14.32
2022-08-25T18:34:31.048Z,13.70
2022-08-25T18:36:58.191Z,16.48
2022-08-25T18:39:24.978Z,20.02
2022-08-25T18:41:51.636Z,21.08
2022-08-25T18:44:18.050Z,25.30
2022-08-25T18:46:45.267Z,17.88
2022-08-25T18:49:11.897Z,18.42
2022-08-25T18:51:42.353Z,19.67
2022-08-25T18:54:09.421Z,17.67
2022-08-25T18:56:49.758Z,17.90
2022-08-25T18:59:16.073Z,18.52
2022-08-25T19:01:42.909Z,17.08
2022-08-25T19:04:09.338Z,21.40
2022-08-25T19:06:35.638Z,17.33
2022-08-25T19:09:01.938Z,17.05
2022-08-25T19:11:29.110Z,17.90
2022-08-25T19:13:56.594Z,16.83
2022-08-25T19:16:24.126Z,47.55
2022-08-25T19:18:52.166Z,45.53
2022-08-25T19:21:18.984Z,45.63
2022-08-25T19:23:49.187Z,45.22
2022-08-25T19:26:17.800Z,44.42
2022-08-25T19:28:48.675Z,43.25
2022-08-25T19:31:15.603Z,41.25
2022-08-25T19:33:45.949Z,40.15
2022-08-25T19:36:12.855Z,38.17
2022-08-25T19:38:39.203Z,37.85
2022-08-25T19:41:10.694Z,39.65
2022-08-25T19:43:40.676Z,35.45
2022-08-25T19:46:22.486Z,35.00
2022-08-25T19:48:48.953Z,54.00
2022-08-25T19:51:16.785Z,199.73
2022-08-25T19:56:14.003Z,206.68
2022-08-25T19:58:41.752Z,180.35
2022-08-25T20:01:11.543Z,188.77
2022-08-25T20:03:42.949Z,256.73
2022-08-25T20:06:09.260Z,362.65
2022-08-25T20:08:37.375Z,295.92
2022-08-25T20:11:03.908Z,225.85
2022-08-25T20:13:30.982Z,190.73
2022-08-25T20:15:58.691Z,187.68
2022-08-25T20:18:25.299Z,167.55
2022-08-25T20:20:51.648Z,175.75
2022-08-25T20:23:17.946Z,166.40
2022-08-25T20:25:44.604Z,152.88
2022-08-25T20:28:12.692Z,154.50
2022-08-25T20:30:45.175Z,137.43
2022-08-25T20:33:11.570Z,123.65
2022-08-25T20:35:38.434Z,127.15
2022-08-25T20:38:05.336Z,135.23
2022-08-25T20:40:31.742Z,183.23
2022-08-25T20:42:58.230Z,184.70
2022-08-25T20:45:25.475Z,156.77
2022-08-25T20:47:51.861Z,154.68
2022-08-25T20:50:18.177Z,149.27
2022-08-25T20:52:44.603Z,123.03
2022-08-25T20:55:11.289Z,120.45
2022-08-25T20:57:38.004Z,108.85
2022-08-25T21:00:04.749Z,107.45
2022-08-25T21:02:31.106Z,105.07
2022-08-25T21:04:57.720Z,96.40
2022-08-25T21:07:24.455Z,155.80
2022-08-25T21:09:51.556Z,181.90
2022-08-25T21:12:17.848Z,119.40
2022-08-25T21:14:44.108Z,86.07
2022-08-25T21:17:10.436Z,123.68
2022-08-25T21:19:38.621Z,103.93
2022-08-25T21:22:06.552Z,109.00
2022-08-25T21:24:32.884Z,81.35
2022-08-25T21:26:59.226Z,74.75
2022-08-25T21:29:28.550Z,77.65
2022-08-25T21:31:55.390Z,92.53
2022-08-25T21:34:21.820Z,142.32
2022-08-25T21:36:48.927Z,318.27
2022-08-25T21:39:15.283Z,384.88
2022-08-25T21:41:41.860Z,368.80
2022-08-25T21:44:08.244Z,372.55
2022-08-25T21:46:34.615Z,331.10
2022-08-25T21:49:06.116Z,292.33
2022-08-25T21:51:32.899Z,282.92
2022-08-25T21:53:59.771Z,270.27
2022-08-25T21:56:26.432Z,261.08
2022-08-25T21:58:52.782Z,253.60
2022-08-25T22:01:19.199Z,252.98
2022-08-25T22:03:47.162Z,244.90
2022-08-25T22:06:13.849Z,242.48
2022-08-25T22:08:42.661Z,235.27
2022-08-25T22:11:09.232Z,243.30
2022-08-25T22:13:36.102Z,284.77
2022-08-25T22:16:07.620Z,321.77
2022-08-25T22:18:34.612Z,336.55
2022-08-25T22:21:01.128Z,373.02
2022-08-25T22:23:33.598Z,351.52
2022-08-25T22:26:11.102Z,328.65
2022-08-25T22:28:38.638Z,320.73
2022-08-25T22:31:09.150Z,323.30
2022-08-25T22:33:36.994Z,312.77
2022-08-25T22:36:07.789Z,309.88
2022-08-25T22:38:37.328Z,305.95
2022-08-25T22:41:04.346Z,304.83
2022-08-25T22:43:31.689Z,307.80
2022-08-25T22:45:58.099Z,300.17
2022-08-25T22:48:24.435Z,296.23
2022-08-25T22:50:52.116Z,289.73
2022-08-25T22:53:18.822Z,298.90
2022-08-25T22:55:45.346Z,300.08
2022-08-25T22:58:13.004Z,291.83
2022-08-25T23:00:39.307Z,293.80
2022-08-25T23:03:06.775Z,291.80
2022-08-25T23:05:34.100Z,286.45
2022-08-25T23:08:00.425Z,287.60
2022-08-25T23:10:26.876Z,278.02
2022-08-25T23:12:53.374Z,275.92
2022-08-25T23:15:19.730Z,274.58
2022-08-25T23:17:46.060Z,265.60
2022-08-25T23:20:13.878Z,272.23
2022-08-25T23:22:40.439Z,266.08
2022-08-25T23:25:08.570Z,260.52
2022-08-25T23:27:34.876Z,269.88
2022-08-25T23:30:01.651Z,265.33
2022-08-25T23:32:28.131Z,261.98
2022-08-25T23:34:54.648Z,260.98
2022-08-25T23:37:20.970Z,255.30
2022-08-25T23:39:47.343Z,255.02
2022-08-25T23:42:16.804Z,250.80
2022-08-25T23:44:44.598Z,256.80
2022-08-25T23:47:12.103Z,255.27
2022-08-25T23:49:38.611Z,252.48
2022-08-25T23:52:05.194Z,249.38
2022-08-25T23:54:31.851Z,251.90
2022-08-25T23:56:59.134Z,251.32
2022-08-25T23:59:25.771Z,250.20
